createdAt,value
2022-08-31T00:00:34.755Z,101660.28
2022-08-31T00:03:20.705Z,101660.91
2022-08-31T00:05:48.000Z,101666.84
2022-08-31T00:08:15.772Z,101660.13
2022-08-31T00:10:46.287Z,101665.09
2022-08-31T00:13:14.113Z,101665.88
2022-08-31T00:15:43.278Z,101660.13
2022-08-31T00:18:10.798Z,101673.94
2022-08-31T00:20:38.963Z,101664.59
2022-08-31T00:23:12.886Z,101671.25
2022-08-31T00:25:45.549Z,101672.63
2022-08-31T00:28:15.141Z,101666.41
2022-08-31T00:30:43.797Z,101666.03
2022-08-31T00:33:12.590Z,101663.50
2022-08-31T00:35:41.929Z,101664.72
2022-08-31T00:38:12.109Z,101663.53
2022-08-31T00:40:44.864Z,101662.88
2022-08-31T00:43:54.057Z,101664.50
2022-08-31T00:46:28.809Z,101656.72
2022-08-31T00:49:10.650Z,101661.03
2022-08-31T00:51:49.230Z,101661.75
2022-08-31T00:54:29.701Z,101661.53
2022-08-31T00:56:57.905Z,101661.84
2022-08-31T00:59:27.481Z,101661.13
2022-08-31T01:01:54.814Z,101655.25
2022-08-31T01:04:22.270Z,101656.41
2022-08-31T01:06:50.214Z,101662.06
2022-08-31T01:09:19.242Z,101660.28
2022-08-31T01:11:46.405Z,101664.78
2022-08-31T01:14:14.221Z,101673.00
2022-08-31T01:16:48.590Z,101670.56
2022-08-31T01:20:24.178Z,101673.00
2022-08-31T01:23:20.457Z,101678.13
2022-08-31T01:25:51.043Z,101674.00
2022-08-31T01:28:18.120Z,101677.59
2022-08-31T01:31:08.975Z,101678.53
2022-08-31T01:33:39.076Z,101679.34
2022-08-31T01:36:11.165Z,101673.03
2022-08-31T01:38:41.264Z,101684.59
2022-08-31T01:41:08.756Z,101683.53
2022-08-31T01:43:36.541Z,101684.44
2022-08-31T01:46:10.788Z,101683.84
2022-08-31T01:48:41.607Z,101683.03
2022-08-31T01:51:12.549Z,101680.41
2022-08-31T01:53:41.345Z,101681.94
2022-08-31T01:56:24.768Z,101683.78
2022-08-31T01:58:52.250Z,101684.28
2022-08-31T02:01:33.420Z,101685.03
2022-08-31T02:04:05.222Z,101688.81
2022-08-31T02:06:33.076Z,101691.00
2022-08-31T02:09:03.120Z,101685.34
2022-08-31T02:11:30.122Z,101690.50
2022-08-31T02:13:57.503Z,101690.91
2022-08-31T02:16:25.031Z,101684.97
2022-08-31T02:18:52.855Z,101690.13
2022-08-31T02:21:20.339Z,101685.84
2022-08-31T02:23:47.491Z,101682.69
2022-08-31T02:26:14.582Z,101678.72
2022-08-31T02:28:41.976Z,101677.28
2022-08-31T02:31:09.101Z,101673.91
2022-08-31T02:33:36.267Z,101675.47
2022-08-31T02:36:04.406Z,101670.44
2022-08-31T02:38:37.351Z,101672.47
2022-08-31T02:41:06.434Z,101680.22
2022-08-31T02:43:34.033Z,101664.38
2022-08-31T02:46:02.083Z,101671.00
2022-08-31T02:48:29.139Z,101662.41
2022-08-31T02:51:07.290Z,101662.06
2022-08-31T02:53:34.863Z,101656.06
2022-08-31T02:56:02.846Z,101652.50
2022-08-31T02:58:29.981Z,101654.09
2022-08-31T03:00:56.978Z,101651.91
2022-08-31T03:03:23.972Z,101659.56
2022-08-31T03:05:51.237Z,101656.75
2022-08-31T03:08:18.903Z,101656.63
2022-08-31T03:10:46.221Z,101658.72
2022-08-31T03:13:13.585Z,101657.56
2022-08-31T03:15:44.921Z,101653.81
2022-08-31T03:18:12.129Z,101660.94
2022-08-31T03:20:39.379Z,101664.72
2022-08-31T03:23:06.868Z,101648.56
2022-08-31T03:25:33.986Z,101657.28
2022-08-31T03:28:01.416Z,101655.59
2022-08-31T03:30:29.721Z,101659.47
2022-08-31T03:33:02.682Z,101660.50
2022-08-31T03:35:30.980Z,101661.03
2022-08-31T03:37:58.189Z,101659.16
2022-08-31T03:40:25.306Z,101663.34
2022-08-31T03:42:52.459Z,101654.22
2022-08-31T03:45:20.368Z,101664.09
2022-08-31T03:47:47.505Z,101665.03
2022-08-31T03:50:16.109Z,101672.25
2022-08-31T03:52:43.738Z,101670.28
2022-08-31T03:55:12.752Z,101679.84
2022-08-31T03:57:40.067Z,101679.84
2022-08-31T04:00:09.206Z,101691.56
2022-08-31T04:02:39.930Z,101691.25
2022-08-31T04:05:08.407Z,101694.72
2022-08-31T04:07:42.855Z,101697.06
2022-08-31T04:10:14.517Z,101691.13
2022-08-31T04:12:44.508Z,101699.00
2022-08-31T04:15:12.449Z,101695.28
2022-08-31T04:17:39.751Z,101696.88
2022-08-31T04:20:07.957Z,101692.75
2022-08-31T04:22:35.588Z,101695.50
2022-08-31T04:25:06.383Z,101698.84
2022-08-31T04:27:33.511Z,101707.66
2022-08-31T04:30:02.353Z,101704.06
2022-08-31T04:32:29.804Z,101705.84
2022-08-31T04:34:57.201Z,101709.94
2022-08-31T04:37:24.439Z,101705.63
2022-08-31T04:39:52.411Z,101713.88
2022-08-31T04:42:19.852Z,101707.88
2022-08-31T04:44:47.210Z,101714.84
2022-08-31T04:47:14.344Z,101716.19
2022-08-31T04:49:41.557Z,101718.16
2022-08-31T04:52:08.862Z,101712.72
2022-08-31T04:54:35.940Z,101721.97
2022-08-31T04:57:03.033Z,101730.56
2022-08-31T04:59:30.072Z,101734.19
2022-08-31T05:01:58.630Z,101728.31
2022-08-31T05:04:29.385Z,101730.19
2022-08-31T05:06:56.572Z,101732.72
2022-08-31T05:09:24.432Z,101735.25
2022-08-31T05:11:55.781Z,101731.78
2022-08-31T05:14:24.533Z,101728.97
2022-08-31T05:16:52.431Z,101726.75
2022-08-31T05:19:21.054Z,101725.50
2022-08-31T05:21:48.332Z,101718.69
2022-08-31T05:24:22.435Z,101725.81
2022-08-31T05:26:54.527Z,101717.44
2022-08-31T05:29:25.990Z,101719.41
2022-08-31T05:31:53.199Z,101723.75
2022-08-31T05:34:22.858Z,101731.50
2022-08-31T05:36:55.011Z,101731.06
2022-08-31T05:39:22.579Z,101727.28
2022-08-31T05:41:49.969Z,101728.97
2022-08-31T05:44:21.221Z,101733.84
2022-08-31T05:46:54.778Z,101733.13
2022-08-31T05:49:32.305Z,101737.53
2022-08-31T05:52:02.111Z,101734.66
2022-08-31T05:54:29.089Z,101731.00
2022-08-31T05:57:01.227Z,101735.09
2022-08-31T05:59:31.071Z,101736.53
2022-08-31T06:01:59.504Z,101734.81
2022-08-31T06:04:28.769Z,101728.47
2022-08-31T06:06:55.933Z,101730.91
2022-08-31T06:09:23.033Z,101731.47
2022-08-31T06:11:51.294Z,101727.94
2022-08-31T06:14:18.737Z,101733.22
2022-08-31T06:16:46.001Z,101730.75
2022-08-31T06:19:13.801Z,101730.97
2022-08-31T06:21:49.816Z,101720.78
2022-08-31T06:24:19.650Z,101729.91
2022-08-31T06:26:58.288Z,101735.19
2022-08-31T06:29:29.566Z,101726.78
2022-08-31T06:31:56.921Z,101729.06
2022-08-31T06:34:32.367Z,101734.84
2022-08-31T06:37:00.610Z,101726.09
2022-08-31T06:39:27.863Z,101732.53
2022-08-31T06:41:57.813Z,101732.53
2022-08-31T06:44:25.104Z,101731.81
2022-08-31T06:46:53.157Z,101737.44
2022-08-31T06:49:20.783Z,101729.34
2022-08-31T06:51:48.769Z,101730.56
2022-08-31T06:54:29.580Z,101735.03
2022-08-31T06:57:08.813Z,101737.75
2022-08-31T06:59:41.670Z,101732.66
2022-08-31T07:02:08.929Z,101738.41
2022-08-31T07:04:39.379Z,101735.41
2022-08-31T07:07:11.172Z,101742.44
2022-08-31T07:09:41.161Z,101743.88
2022-08-31T07:12:08.734Z,101744.16
2022-08-31T07:14:36.465Z,101747.47
2022-08-31T07:17:07.768Z,101755.66
2022-08-31T07:19:35.313Z,101754.78
2022-08-31T07:22:09.239Z,101756.50
2022-08-31T07:24:40.403Z,101751.78
2022-08-31T07:27:16.487Z,101760.69
2022-08-31T07:29:47.890Z,101762.41
2022-08-31T07:32:17.327Z,101770.84
2022-08-31T07:34:44.434Z,101773.31
2022-08-31T07:37:30.780Z,101772.44
2022-08-31T07:40:23.037Z,101768.03
2022-08-31T07:42:50.695Z,101771.84
2022-08-31T07:45:29.441Z,101774.81
2022-08-31T07:48:01.081Z,101773.50
2022-08-31T07:50:31.703Z,101768.75
2022-08-31T07:53:00.424Z,101765.75
2022-08-31T07:55:29.102Z,101775.22
2022-08-31T07:57:57.307Z,101786.94
2022-08-31T08:00:33.151Z,101782.72
2022-08-31T08:03:11.859Z,101780.66
2022-08-31T08:05:41.723Z,101786.50
2022-08-31T08:08:13.604Z,101789.47
2022-08-31T08:10:46.712Z,101787.78
2022-08-31T08:13:20.106Z,101788.81
2022-08-31T08:15:48.581Z,101786.84
2022-08-31T08:18:25.247Z,101788.25
2022-08-31T08:20:52.804Z,101792.47
2022-08-31T08:23:28.801Z,101781.97
2022-08-31T08:26:03.681Z,101783.50
2022-08-31T08:28:40.784Z,101788.09
2022-08-31T08:31:19.226Z,101794.16
2022-08-31T08:33:51.581Z,101788.16
2022-08-31T08:36:20.726Z,101786.00
2022-08-31T08:39:06.677Z,101786.06
2022-08-31T08:41:38.042Z,101781.41
2022-08-31T08:44:18.142Z,101781.63
2022-08-31T08:46:53.849Z,101790.69
2022-08-31T08:49:37.328Z,101783.91
2022-08-31T08:52:26.948Z,101788.78
2022-08-31T08:55:10.132Z,101792.03
2022-08-31T08:57:46.334Z,101791.44
2022-08-31T09:00:25.165Z,101790.53
2022-08-31T09:03:33.331Z,101790.56
2022-08-31T09:06:15.655Z,101791.78
2022-08-31T09:13:09.055Z,101796.91
2022-08-31T09:16:04.317Z,101791.38
2022-08-31T09:21:53.750Z,101777.78
2022-08-31T09:24:38.648Z,101779.91
2022-08-31T09:27:19.273Z,101780.41
2022-08-31T09:30:06.006Z,101778.34
2022-08-31T09:32:39.003Z,101777.31
2022-08-31T09:35:23.739Z,101769.28
2022-08-31T09:38:41.331Z,101767.44
2022-08-31T09:41:38.425Z,101762.63
2022-08-31T09:44:43.669Z,101770.13
2022-08-31T09:47:52.270Z,101771.91
2022-08-31T09:51:01.002Z,101778.56
2022-08-31T09:53:47.255Z,101777.84
2022-08-31T09:56:19.829Z,101775.78
2022-08-31T09:59:05.397Z,101775.75
2022-08-31T10:01:47.362Z,101769.69
2022-08-31T10:04:15.981Z,101767.38
2022-08-31T10:07:06.156Z,101762.75
2022-08-31T10:09:57.506Z,101759.03
2022-08-31T10:12:42.625Z,101751.81
2022-08-31T10:15:44.097Z,101747.38
2022-08-31T10:18:56.038Z,101750.19
2022-08-31T10:21:54.820Z,101745.13
2022-08-31T10:24:46.236Z,101741.69
2022-08-31T10:28:10.822Z,101743.88
2022-08-31T10:31:30.207Z,101747.31
2022-08-31T10:34:37.231Z,101755.09
2022-08-31T10:37:20.529Z,101751.13
2022-08-31T10:40:08.484Z,101741.31
2022-08-31T10:42:59.189Z,101746.91
2022-08-31T10:45:43.903Z,101747.22
2022-08-31T10:48:13.080Z,101740.84
2022-08-31T10:51:14.549Z,101737.13
2022-08-31T10:58:02.406Z,101735.97
2022-08-31T11:00:50.304Z,101740.31
2022-08-31T11:04:08.800Z,101735.09
2022-08-31T11:07:42.473Z,101729.09
2022-08-31T11:10:47.297Z,101735.25
2022-08-31T11:13:57.158Z,101722.25
2022-08-31T11:17:11.995Z,101716.38
2022-08-31T11:20:11.092Z,101716.13
2022-08-31T11:23:19.638Z,101722.53
2022-08-31T11:26:07.044Z,101723.94
2022-08-31T11:29:02.978Z,101717.47
2022-08-31T11:31:33.015Z,101722.34
2022-08-31T11:34:22.748Z,101709.09
2022-08-31T11:36:57.486Z,101716.09
2022-08-31T11:39:31.041Z,101712.25
2022-08-31T11:41:59.053Z,101702.44
2022-08-31T11:44:39.492Z,101699.56
2022-08-31T11:47:29.495Z,101709.59
2022-08-31T11:50:39.133Z,101706.38
2022-08-31T11:53:44.320Z,101700.88
2022-08-31T11:56:15.285Z,101702.16
2022-08-31T11:59:34.131Z,101707.16
2022-08-31T12:02:24.107Z,101695.56
2022-08-31T12:04:57.472Z,101700.56
2022-08-31T12:07:36.090Z,101689.56
2022-08-31T12:10:46.565Z,101686.72
2022-08-31T12:14:04.041Z,101674.94
2022-08-31T12:17:14.972Z,101687.31
2022-08-31T12:20:01.063Z,101681.78
2022-08-31T12:23:33.311Z,101681.84
2022-08-31T12:27:07.578Z,101683.47
2022-08-31T12:29:40.213Z,101673.06
2022-08-31T12:32:36.071Z,101669.63
2022-08-31T12:35:25.059Z,101666.41
2022-08-31T12:38:16.495Z,101665.41
2022-08-31T12:40:51.755Z,101674.19
2022-08-31T12:43:49.192Z,101666.19
2022-08-31T12:46:57.651Z,101660.94
2022-08-31T12:50:11.101Z,101657.88
2022-08-31T12:53:32.010Z,101654.53
2022-08-31T12:56:31.530Z,101648.56
2022-08-31T13:00:00.663Z,101666.66
2022-08-31T13:02:33.039Z,101661.09
2022-08-31T13:05:19.671Z,101667.16
2022-08-31T13:07:49.838Z,101664.81
2022-08-31T13:10:30.708Z,101659.00
2022-08-31T13:13:22.511Z,101653.75
2022-08-31T13:15:50.313Z,101654.22
2022-08-31T13:18:34.455Z,101642.25
2022-08-31T13:21:06.541Z,101642.41
2022-08-31T13:23:42.934Z,101639.97
2022-08-31T13:26:38.796Z,101641.19
2022-08-31T13:29:23.668Z,101642.56
2022-08-31T13:31:53.831Z,101641.72
2022-08-31T13:34:21.228Z,101646.19
2022-08-31T13:36:59.695Z,101642.75
2022-08-31T13:39:39.473Z,101641.75
2022-08-31T13:42:57.178Z,101641.72
2022-08-31T13:45:38.622Z,101638.63
2022-08-31T13:48:20.836Z,101634.16
2022-08-31T13:50:58.168Z,101639.44
2022-08-31T13:54:08.960Z,101632.91
2022-08-31T13:56:59.132Z,101635.53
2022-08-31T13:59:39.572Z,101629.16
2022-08-31T14:02:30.945Z,101630.19
2022-08-31T14:05:10.856Z,101625.41
2022-08-31T14:07:45.811Z,101621.47
2022-08-31T14:10:38.886Z,101633.06
2022-08-31T14:13:35.009Z,101627.72
2022-08-31T14:16:08.367Z,101625.13
2022-08-31T14:18:47.594Z,101617.75
2022-08-31T14:21:38.126Z,101619.22
2022-08-31T14:24:12.010Z,101622.19
2022-08-31T14:26:48.288Z,101618.53
2022-08-31T14:29:19.095Z,101617.19
2022-08-31T14:31:52.856Z,101613.13
2022-08-31T14:34:30.431Z,101616.44
2022-08-31T14:37:07.428Z,101616.00
2022-08-31T14:39:46.107Z,101617.25
2022-08-31T14:42:38.001Z,101616.69
2022-08-31T14:45:18.867Z,101616.38
2022-08-31T14:47:52.045Z,101616.56
2022-08-31T14:50:25.422Z,101620.03
2022-08-31T14:52:55.630Z,101615.38
2022-08-31T14:55:31.669Z,101618.72
2022-08-31T14:58:13.123Z,101610.44
2022-08-31T15:00:53.207Z,101611.22
2022-08-31T15:03:24.301Z,101617.22
2022-08-31T15:05:51.523Z,101601.81
2022-08-31T15:08:37.917Z,101600.31
2022-08-31T15:11:11.310Z,101601.81
2022-08-31T15:13:39.777Z,101595.28
2022-08-31T15:16:08.336Z,101597.59
2022-08-31T15:18:36.536Z,101594.03
2022-08-31T15:21:11.061Z,101603.97
2022-08-31T15:23:42.183Z,101602.88
2022-08-31T15:27:08.200Z,101599.13
2022-08-31T15:29:35.447Z,101601.19
2022-08-31T15:32:46.464Z,101599.66
2022-08-31T15:35:46.536Z,101607.25
2022-08-31T15:38:14.463Z,101601.50
2022-08-31T15:40:51.760Z,101599.25
2022-08-31T15:43:22.742Z,101602.75
2022-08-31T15:45:53.117Z,101604.06
2022-08-31T15:48:39.586Z,101598.53
2022-08-31T15:51:30.097Z,101592.59
2022-08-31T15:54:21.340Z,101593.19
2022-08-31T15:56:53.162Z,101591.31
2022-08-31T15:59:55.404Z,101586.75
2022-08-31T16:02:26.222Z,101586.34
2022-08-31T16:05:17.794Z,101585.59
2022-08-31T16:07:47.618Z,101590.44
2022-08-31T16:10:19.379Z,101592.25
2022-08-31T16:13:11.510Z,101586.28
2022-08-31T16:15:48.414Z,101586.78
2022-08-31T16:18:42.327Z,101579.78
2022-08-31T16:21:09.434Z,101580.44
2022-08-31T16:23:36.807Z,101574.81
2022-08-31T16:29:12.914Z,101580.28
2022-08-31T16:31:43.502Z,101583.09
2022-08-31T16:34:13.510Z,101580.13
2022-08-31T16:37:28.968Z,101578.47
2022-08-31T16:39:56.547Z,101581.09
2022-08-31T16:43:40.464Z,101578.78
2022-08-31T16:47:59.146Z,101581.31
2022-08-31T16:50:03.676Z,101581.97
2022-08-31T16:53:01.534Z,101585.31
2022-08-31T16:55:53.360Z,101585.59
2022-08-31T16:59:09.559Z,101591.47
2022-08-31T17:01:48.935Z,101590.03
2022-08-31T17:04:50.855Z,101588.78
2022-08-31T17:07:32.490Z,101592.31
2022-08-31T17:10:10.863Z,101596.50
2022-08-31T17:13:32.936Z,101595.31
2022-08-31T17:16:48.425Z,101597.56
2022-08-31T17:19:16.472Z,101592.44
2022-08-31T17:21:50.657Z,101603.06
2022-08-31T17:24:36.059Z,101590.13
2022-08-31T17:27:16.911Z,101604.38
2022-08-31T17:30:08.771Z,101600.66
2022-08-31T17:35:54.003Z,101599.19
2022-08-31T17:38:24.866Z,101604.13
2022-08-31T17:41:17.493Z,101610.72
2022-08-31T17:43:44.980Z,101601.31
2022-08-31T17:46:17.145Z,101604.13
2022-08-31T17:48:55.757Z,101603.16
2022-08-31T17:51:41.025Z,101619.63
2022-08-31T17:54:52.809Z,101608.25
2022-08-31T17:57:25.044Z,101615.38
2022-08-31T17:59:54.897Z,101618.47
2022-08-31T18:02:34.676Z,101621.13
2022-08-31T18:05:03.685Z,101620.16
2022-08-31T18:07:37.285Z,101622.66
2022-08-31T18:10:05.154Z,101620.34
2022-08-31T18:12:32.461Z,101623.88
2022-08-31T18:14:59.613Z,101623.50
2022-08-31T18:17:27.238Z,101631.13
2022-08-31T18:19:55.318Z,101622.53
2022-08-31T18:22:22.329Z,101633.78
2022-08-31T18:24:49.644Z,101630.16
2022-08-31T18:27:16.670Z,101633.50
2022-08-31T18:29:45.250Z,101641.31
2022-08-31T18:32:12.755Z,101638.41
2022-08-31T18:34:47.210Z,101645.41
2022-08-31T18:37:20.988Z,101646.53
2022-08-31T18:40:08.461Z,101645.97
2022-08-31T18:42:57.193Z,101656.47
2022-08-31T18:45:30.701Z,101655.63
2022-08-31T18:48:35.187Z,101647.81
2022-08-31T18:50:50.044Z,101652.28
2022-08-31T18:53:27.656Z,101653.41
2022-08-31T18:56:06.081Z,101648.91
2022-08-31T18:58:33.476Z,101649.47
2022-08-31T19:01:00.562Z,101651.44
2022-08-31T19:03:29.055Z,101655.91
2022-08-31T19:05:57.048Z,101658.97
2022-08-31T19:08:29.169Z,101653.94
2022-08-31T19:10:57.188Z,101663.66
2022-08-31T19:13:29.614Z,101659.78
2022-08-31T19:16:01.551Z,101659.25
2022-08-31T19:18:30.998Z,101660.63
2022-08-31T19:20:58.193Z,101666.13
2022-08-31T19:23:26.248Z,101661.66
2022-08-31T19:25:54.431Z,101662.91
2022-08-31T19:28:22.004Z,101664.59
2022-08-31T19:30:49.013Z,101665.53
2022-08-31T19:33:16.530Z,101662.75
2022-08-31T19:35:44.280Z,101668.44
2022-08-31T19:38:11.976Z,101666.81
2022-08-31T19:40:40.142Z,101665.75
2022-08-31T19:45:55.586Z,101671.63
2022-08-31T19:48:23.925Z,101677.66
2022-08-31T19:50:52.385Z,101676.28
2022-08-31T19:53:21.533Z,101677.38
2022-08-31T19:55:53.393Z,101662.75
2022-08-31T19:58:25.441Z,101669.13
2022-08-31T20:01:00.777Z,101672.34
2022-08-31T20:03:31.107Z,101672.69
2022-08-31T20:05:59.744Z,101674.75
2022-08-31T20:08:26.731Z,101674.81
2022-08-31T20:10:53.795Z,101668.31
2022-08-31T20:13:28.236Z,101678.81
2022-08-31T20:15:56.171Z,101681.25
2022-08-31T20:18:26.175Z,101675.22
2022-08-31T20:20:55.026Z,101683.75
2022-08-31T20:23:22.490Z,101682.63
2022-08-31T20:25:54.906Z,101680.88
2022-08-31T20:28:25.387Z,101689.81
2022-08-31T20:31:00.197Z,101687.84
2022-08-31T20:33:28.145Z,101681.19
2022-08-31T20:35:58.392Z,101681.13
2022-08-31T20:38:28.645Z,101681.56
2022-08-31T20:40:56.027Z,101682.41
2022-08-31T20:43:27.055Z,101688.25
2022-08-31T20:45:54.233Z,101687.09
2022-08-31T20:48:59.568Z,101681.25
2022-08-31T20:51:26.599Z,101685.09
2022-08-31T20:53:53.816Z,101694.09
2022-08-31T20:56:26.143Z,101688.97
2022-08-31T20:58:53.210Z,101694.00
2022-08-31T21:01:21.619Z,101688.00
2022-08-31T21:03:48.699Z,101691.53
2022-08-31T21:06:15.690Z,101687.94
2022-08-31T21:08:43.250Z,101693.31
2022-08-31T21:11:17.138Z,101692.97
2022-08-31T21:13:45.733Z,101700.16
2022-08-31T21:16:14.909Z,101705.91
2022-08-31T21:18:42.008Z,101700.22
2022-08-31T21:21:17.692Z,101698.03
2022-08-31T21:23:47.998Z,101698.63
2022-08-31T21:26:26.422Z,101702.22
2022-08-31T21:28:57.026Z,101698.16
2022-08-31T21:31:28.914Z,101701.41
2022-08-31T21:34:03.516Z,101701.63
2022-08-31T21:36:33.850Z,101699.00
2022-08-31T21:39:01.718Z,101709.56
2022-08-31T21:41:29.709Z,101703.34
2022-08-31T21:44:01.224Z,101705.03
2022-08-31T21:46:29.752Z,101701.66
2022-08-31T21:48:59.529Z,101701.88
2022-08-31T21:51:38.082Z,101708.63
2022-08-31T21:54:08.953Z,101702.84
2022-08-31T21:56:46.080Z,101712.88
2022-08-31T21:59:16.872Z,101712.31
2022-08-31T22:01:45.185Z,101717.47
2022-08-31T22:04:15.925Z,101711.22
2022-08-31T22:06:43.612Z,101715.06
2022-08-31T22:09:17.951Z,101714.56
2022-08-31T22:11:51.551Z,101723.06
2022-08-31T22:14:26.062Z,101713.38
2022-08-31T22:16:57.108Z,101713.72
2022-08-31T22:19:27.115Z,101714.31
2022-08-31T22:22:01.466Z,101714.56
2022-08-31T22:24:32.583Z,101730.34
2022-08-31T22:27:08.307Z,101718.16
2022-08-31T22:29:37.785Z,101715.72
2022-08-31T22:32:15.147Z,101719.72
2022-08-31T22:34:43.452Z,101720.03
2022-08-31T22:37:13.954Z,101729.25
2022-08-31T22:39:42.693Z,101723.88
2022-08-31T22:42:11.865Z,101719.09
2022-08-31T22:44:40.518Z,101729.84
2022-08-31T22:47:07.580Z,101720.53
2022-08-31T22:49:34.637Z,101722.44
2022-08-31T22:52:02.165Z,101731.06
2022-08-31T22:54:29.423Z,101727.50
2022-08-31T22:56:56.842Z,101728.16
2022-08-31T22:59:27.454Z,101738.00
2022-08-31T23:02:03.614Z,101719.72
2022-08-31T23:04:34.427Z,101730.81
2022-08-31T23:07:04.240Z,101735.81
2022-08-31T23:09:34.167Z,101733.22
2022-08-31T23:12:04.951Z,101736.56
2022-08-31T23:14:33.097Z,101728.91
2022-08-31T23:17:09.028Z,101724.75
2022-08-31T23:19:43.764Z,101721.34
2022-08-31T23:22:15.259Z,101714.78
2022-08-31T23:24:47.972Z,101714.09
2022-08-31T23:27:19.749Z,101710.38
2022-08-31T23:29:58.821Z,101709.28
2022-08-31T23:32:29.057Z,101710.72
2022-08-31T23:34:58.319Z,101705.47
2022-08-31T23:37:27.357Z,101707.16
2022-08-31T23:39:55.974Z,101704.47
2022-08-31T23:42:26.258Z,101712.16
2022-08-31T23:44:54.384Z,101707.16
2022-08-31T23:47:29.251Z,101707.50
2022-08-31T23:49:59.258Z,101703.56
2022-08-31T23:52:29.806Z,101704.25
2022-08-31T23:55:00.372Z,101703.69
2022-08-31T23:57:32.735Z,101706.03
